sensor_id;sensor_type;location;lat;lon;timestamp;temperature;humidity
44487;DHT22;30191;50.908;6.962;2023-04-03T00:00:59;7.20;99.90
44487;DHT22;30191;50.908;6.962;2023-04-03T00:03:25;7.20;99.90
44487;DHT22;30191;50.908;6.962;2023-04-03T00:05:50;7.20;99.90
44487;DHT22;30191;50.908;6.962;2023-04-03T00:08:16;7.20;99.90
44487;DHT22;30191;50.908;6.962;2023-04-03T00:10:42;7.20;99.90
44487;DHT22;30191;50.908;6.962;2023-04-03T00:13:07;7.20;99.90
44487;DHT22;30191;50.908;6.962;2023-04-03T00:15:33;7.20;99.90
44487;DHT22;30191;50.908;6.962;2023-04-03T00:18:00;7.20;99.90
44487;DHT22;30191;50.908;6.962;2023-04-03T00:20:26;7.20;99.90
44487;DHT22;30191;50.908;6.962;2023-04-03T00:22:52;7.30;99.90
44487;DHT22;30191;50.908;6.962;2023-04-03T00:25:18;7.20;99.90
44487;DHT22;30191;50.908;6.962;2023-04-03T00:27:43;7.20;99.90
44487;DHT22;30191;50.908;6.962;2023-04-03T00:30:10;7.20;99.90
44487;DHT22;30191;50.908;6.962;2023-04-03T00:32:36;7.20;99.90
44487;DHT22;30191;50.908;6.962;2023-04-03T00:35:02;7.10;99.90
44487;DHT22;30191;50.908;6.962;2023-04-03T00:37:27;7.20;99.90
44487;DHT22;30191;50.908;6.962;2023-04-03T00:39:53;7.10;99.90
44487;DHT22;30191;50.908;6.962;2023-04-03T00:42:18;7.20;99.90
44487;DHT22;30191;50.908;6.962;2023-04-03T00:47:13;7.10;99.90
44487;DHT22;30191;50.908;6.962;2023-04-03T00:49:39;7.00;99.90
44487;DHT22;30191;50.908;6.962;2023-04-03T00:52:06;7.00;99.90
44487;DHT22;30191;50.908;6.962;2023-04-03T00:54:34;7.00;99.90
44487;DHT22;30191;50.908;6.962;2023-04-03T00:57:01;6.90;99.90
44487;DHT22;30191;50.908;6.962;2023-04-03T00:59:29;6.90;99.90
44487;DHT22;30191;50.908;6.962;2023-04-03T01:01:55;7.00;99.90
44487;DHT22;30191;50.908;6.962;2023-04-03T01:04:28;6.90;99.90
44487;DHT22;30191;50.908;6.962;2023-04-03T01:06:55;7.00;99.90
44487;DHT22;30191;50.908;6.962;2023-04-03T01:09:21;6.90;99.90
44487;DHT22;30191;50.908;6.962;2023-04-03T01:11:47;6.90;99.90
44487;DHT22;30191;50.908;6.962;2023-04-03T01:14:12;6.80;99.90
44487;DHT22;30191;50.908;6.962;2023-04-03T01:16:38;6.80;99.90
44487;DHT22;30191;50.908;6.962;2023-04-03T01:19:05;6.80;99.90
44487;DHT22;30191;50.908;6.962;2023-04-03T01:24:36;6.80;99.90
44487;DHT22;30191;50.908;6.962;2023-04-03T01:27:04;6.70;99.90
44487;DHT22;30191;50.908;6.962;2023-04-03T01:29:31;6.70;99.90
44487;DHT22;30191;50.908;6.962;2023-04-03T01:31:57;6.60;99.90
44487;DHT22;30191;50.908;6.962;2023-04-03T01:34:23;6.60;99.90
44487;DHT22;30191;50.908;6.962;2023-04-03T01:36:49;6.60;99.90
44487;DHT22;30191;50.908;6.962;2023-04-03T01:39:16;6.60;99.90
44487;DHT22;30191;50.908;6.962;2023-04-03T01:41:41;6.60;99.90
44487;DHT22;30191;50.908;6.962;2023-04-03T01:44:07;6.60;99.90
44487;DHT22;30191;50.908;6.962;2023-04-03T01:46:33;6.60;99.90
44487;DHT22;30191;50.908;6.962;2023-04-03T01:48:58;6.60;99.90
44487;DHT22;30191;50.908;6.962;2023-04-03T01:51:24;6.60;99.90
44487;DHT22;30191;50.908;6.962;2023-04-03T01:53:49;6.60;99.90
44487;DHT22;30191;50.908;6.962;2023-04-03T01:56:15;6.50;99.90
44487;DHT22;30191;50.908;6.962;2023-04-03T01:58:40;6.50;99.90
44487;DHT22;30191;50.908;6.962;2023-04-03T02:01:06;6.50;99.90
44487;DHT22;30191;50.908;6.962;2023-04-03T02:03:32;6.50;99.90
44487;DHT22;30191;50.908;6.962;2023-04-03T02:05:57;6.50;99.90
44487;DHT22;30191;50.908;6.962;2023-04-03T02:08:23;6.50;99.90
44487;DHT22;30191;50.908;6.962;2023-04-03T02:10:49;6.50;99.90
44487;DHT22;30191;50.908;6.962;2023-04-03T02:13:15;6.50;99.90
44487;DHT22;30191;50.908;6.962;2023-04-03T02:15:41;6.40;99.90
44487;DHT22;30191;50.908;6.962;2023-04-03T02:18:06;6.40;99.90
44487;DHT22;30191;50.908;6.962;2023-04-03T02:20:32;6.30;99.90
44487;DHT22;30191;50.908;6.962;2023-04-03T02:22:58;6.40;99.90
44487;DHT22;30191;50.908;6.962;2023-04-03T02:25:23;6.30;99.90
44487;DHT22;30191;50.908;6.962;2023-04-03T02:27:49;6.20;99.90
44487;DHT22;30191;50.908;6.962;2023-04-03T02:30:14;6.20;99.90
44487;DHT22;30191;50.908;6.962;2023-04-03T02:32:41;6.20;99.90
44487;DHT22;30191;50.908;6.962;2023-04-03T02:35:07;6.30;99.90
44487;DHT22;30191;50.908;6.962;2023-04-03T02:37:33;6.20;99.90
44487;DHT22;30191;50.908;6.962;2023-04-03T02:39:58;6.20;99.90
44487;DHT22;30191;50.908;6.962;2023-04-03T02:42:24;6.20;99.90
44487;DHT22;30191;50.908;6.962;2023-04-03T02:44:50;6.20;99.90
44487;DHT22;30191;50.908;6.962;2023-04-03T02:47:15;6.20;99.90
44487;DHT22;30191;50.908;6.962;2023-04-03T02:49:41;6.10;99.90
44487;DHT22;30191;50.908;6.962;2023-04-03T02:52:09;6.10;99.90
44487;DHT22;30191;50.908;6.962;2023-04-03T02:54:35;6.00;99.90
44487;DHT22;30191;50.908;6.962;2023-04-03T02:57:00;6.00;99.90
44487;DHT22;30191;50.908;6.962;2023-04-03T02:59:26;5.90;99.90
44487;DHT22;30191;50.908;6.962;2023-04-03T03:01:51;5.90;99.90
44487;DHT22;30191;50.908;6.962;2023-04-03T03:04:17;5.90;99.90
44487;DHT22;30191;50.908;6.962;2023-04-03T03:06:43;5.90;99.90
44487;DHT22;30191;50.908;6.962;2023-04-03T03:09:08;5.90;99.90
44487;DHT22;30191;50.908;6.962;2023-04-03T03:11:34;5.90;99.90
44487;DHT22;30191;50.908;6.962;2023-04-03T03:13:59;5.80;99.90
44487;DHT22;30191;50.908;6.962;2023-04-03T03:16:25;5.90;99.90
44487;DHT22;30191;50.908;6.962;2023-04-03T03:18:50;5.90;99.90
44487;DHT22;30191;50.908;6.962;2023-04-03T03:21:16;5.80;99.90
44487;DHT22;30191;50.908;6.962;2023-04-03T03:23:41;5.80;99.90
44487;DHT22;30191;50.908;6.962;2023-04-03T03:26:08;5.80;99.90
44487;DHT22;30191;50.908;6.962;2023-04-03T03:28:34;5.70;99.90
44487;DHT22;30191;50.908;6.962;2023-04-03T03:31:00;5.70;99.90
44487;DHT22;30191;50.908;6.962;2023-04-03T03:33:26;5.60;99.90
44487;DHT22;30191;50.908;6.962;2023-04-03T03:35:52;5.60;99.90
44487;DHT22;30191;50.908;6.962;2023-04-03T03:38:18;5.60;99.90
44487;DHT22;30191;50.908;6.962;2023-04-03T03:40:43;5.60;99.90
44487;DHT22;30191;50.908;6.962;2023-04-03T03:43:08;5.60;99.90
44487;DHT22;30191;50.908;6.962;2023-04-03T03:45:34;5.50;99.90
44487;DHT22;30191;50.908;6.962;2023-04-03T03:48:00;5.50;99.90
44487;DHT22;30191;50.908;6.962;2023-04-03T03:50:25;5.50;99.90
44487;DHT22;30191;50.908;6.962;2023-04-03T03:52:51;5.60;99.90
44487;DHT22;30191;50.908;6.962;2023-04-03T03:55:17;5.50;99.90
44487;DHT22;30191;50.908;6.962;2023-04-03T03:57:42;5.50;99.90
44487;DHT22;30191;50.908;6.962;2023-04-03T04:00:08;5.50;99.90
44487;DHT22;30191;50.908;6.962;2023-04-03T04:02:34;5.50;99.90
44487;DHT22;30191;50.908;6.962;2023-04-03T04:05:00;5.50;99.90
44487;DHT22;30191;50.908;6.962;2023-04-03T04:07:25;5.60;99.90
44487;DHT22;30191;50.908;6.962;2023-04-03T04:09:53;5.60;99.90
44487;DHT22;30191;50.908;6.962;2023-04-03T04:12:19;5.50;99.90
44487;DHT22;30191;50.908;6.962;2023-04-03T04:14:45;5.50;99.90
44487;DHT22;30191;50.908;6.962;2023-04-03T04:17:12;5.50;99.90
44487;DHT22;30191;50.908;6.962;2023-04-03T04:19:37;5.50;99.90
44487;DHT22;30191;50.908;6.962;2023-04-03T04:22:03;5.50;99.90
44487;DHT22;30191;50.908;6.962;2023-04-03T04:24:29;5.50;99.90
44487;DHT22;30191;50.908;6.962;2023-04-03T04:26:54;5.40;99.90
44487;DHT22;30191;50.908;6.962;2023-04-03T04:29:20;5.40;99.90
44487;DHT22;30191;50.908;6.962;2023-04-03T04:31:45;5.40;99.90
44487;DHT22;30191;50.908;6.962;2023-04-03T04:34:11;5.40;99.90
44487;DHT22;30191;50.908;6.962;2023-04-03T04:36:38;5.40;99.90
44487;DHT22;30191;50.908;6.962;2023-04-03T04:39:04;5.40;99.90
44487;DHT22;30191;50.908;6.962;2023-04-03T04:41:30;5.40;99.90
44487;DHT22;30191;50.908;6.962;2023-04-03T04:43:56;5.40;99.90
44487;DHT22;30191;50.908;6.962;2023-04-03T04:46:21;5.40;99.90
44487;DHT22;30191;50.908;6.962;2023-04-03T04:48:47;5.40;99.90
44487;DHT22;30191;50.908;6.962;2023-04-03T04:51:13;5.30;99.90
44487;DHT22;30191;50.908;6.962;2023-04-03T04:53:39;5.30;99.90
44487;DHT22;30191;50.908;6.962;2023-04-03T04:56:05;5.30;99.90
44487;DHT22;30191;50.908;6.962;2023-04-03T04:58:30;5.30;99.90
44487;DHT22;30191;50.908;6.962;2023-04-03T05:01:03;5.30;99.90
44487;DHT22;30191;50.908;6.962;2023-04-03T05:03:28;5.30;99.90
44487;DHT22;30191;50.908;6.962;2023-04-03T05:05:56;5.30;99.90
44487;DHT22;30191;50.908;6.962;2023-04-03T05:08:21;5.20;99.90
44487;DHT22;30191;50.908;6.962;2023-04-03T05:10:47;5.20;99.90
44487;DHT22;30191;50.908;6.962;2023-04-03T05:13:13;5.20;99.90
44487;DHT22;30191;50.908;6.962;2023-04-03T05:15:39;5.20;99.90
44487;DHT22;30191;50.908;6.962;2023-04-03T05:18:04;5.30;99.90
44487;DHT22;30191;50.908;6.962;2023-04-03T05:20:30;5.30;99.90
44487;DHT22;30191;50.908;6.962;2023-04-03T05:22:56;5.20;99.90
44487;DHT22;30191;50.908;6.962;2023-04-03T05:25:22;5.20;99.90
44487;DHT22;30191;50.908;6.962;2023-04-03T05:27:47;5.20;99.90
44487;DHT22;30191;50.908;6.962;2023-04-03T05:30:13;5.20;99.90
44487;DHT22;30191;50.908;6.962;2023-04-03T05:32:38;5.20;99.90
44487;DHT22;30191;50.908;6.962;2023-04-03T05:35:05;5.20;99.90
44487;DHT22;30191;50.908;6.962;2023-04-03T05:37:31;5.20;99.90
44487;DHT22;30191;50.908;6.962;2023-04-03T05:39:56;5.20;99.90
44487;DHT22;30191;50.908;6.962;2023-04-03T05:42:22;5.20;99.90
44487;DHT22;30191;50.908;6.962;2023-04-03T05:44:47;5.20;99.90
44487;DHT22;30191;50.908;6.962;2023-04-03T05:47:15;5.20;99.90
44487;DHT22;30191;50.908;6.962;2023-04-03T05:49:41;5.20;99.90
44487;DHT22;30191;50.908;6.962;2023-04-03T05:52:11;5.20;99.90
44487;DHT22;30191;50.908;6.962;2023-04-03T05:54:43;5.20;99.90
44487;DHT22;30191;50.908;6.962;2023-04-03T05:57:09;5.20;99.90
44487;DHT22;30191;50.908;6.962;2023-04-03T05:59:35;5.20;99.90
44487;DHT22;30191;50.908;6.962;2023-04-03T06:02:00;5.20;99.90
44487;DHT22;30191;50.908;6.962;2023-04-03T06:04:26;5.30;99.90
44487;DHT22;30191;50.908;6.962;2023-04-03T06:06:53;5.30;99.90
44487;DHT22;30191;50.908;6.962;2023-04-03T06:09:23;5.30;99.90
44487;DHT22;30191;50.908;6.962;2023-04-03T06:11:49;5.40;99.90
44487;DHT22;30191;50.908;6.962;2023-04-03T06:14:14;5.40;99.90
44487;DHT22;30191;50.908;6.962;2023-04-03T06:16:40;5.40;99.90
44487;DHT22;30191;50.908;6.962;2023-04-03T06:19:07;5.40;99.90
44487;DHT22;30191;50.908;6.962;2023-04-03T06:21:33;5.40;99.90
44487;DHT22;30191;50.908;6.962;2023-04-03T06:23:58;5.40;99.90
44487;DHT22;30191;50.908;6.962;2023-04-03T06:26:24;5.40;99.90
44487;DHT22;30191;50.908;6.962;2023-04-03T06:28:49;5.50;99.90
44487;DHT22;30191;50.908;6.962;2023-04-03T06:31:15;5.50;99.90
44487;DHT22;30191;50.908;6.962;2023-04-03T06:33:40;5.50;99.90
44487;DHT22;30191;50.908;6.962;2023-04-03T06:36:06;5.50;99.90
44487;DHT22;30191;50.908;6.962;2023-04-03T06:38:32;5.50;99.90
44487;DHT22;30191;50.908;6.962;2023-04-03T06:40:58;5.60;99.90
44487;DHT22;30191;50.908;6.962;2023-04-03T06:43:24;5.60;99.90
44487;DHT22;30191;50.908;6.962;2023-04-03T06:45:50;5.70;99.90
44487;DHT22;30191;50.908;6.962;2023-04-03T06:48:15;5.60;99.90
44487;DHT22;30191;50.908;6.962;2023-04-03T06:50:41;5.60;99.90
44487;DHT22;30191;50.908;6.962;2023-04-03T06:53:07;5.70;99.90
44487;DHT22;30191;50.908;6.962;2023-04-03T06:55:32;5.70;99.90
44487;DHT22;30191;50.908;6.962;2023-04-03T06:57:58;5.70;99.90
44487;DHT22;30191;50.908;6.962;2023-04-03T07:00:23;5.80;99.90
44487;DHT22;30191;50.908;6.962;2023-04-03T07:02:50;5.90;99.90
44487;DHT22;30191;50.908;6.962;2023-04-03T07:05:15;5.90;99.90
44487;DHT22;30191;50.908;6.962;2023-04-03T07:07:41;5.90;99.90
44487;DHT22;30191;50.908;6.962;2023-04-03T07:10:07;6.00;99.90
44487;DHT22;30191;50.908;6.962;2023-04-03T07:12:32;6.00;99.90
44487;DHT22;30191;50.908;6.962;2023-04-03T07:14:58;6.10;99.90
44487;DHT22;30191;50.908;6.962;2023-04-03T07:17:24;6.10;99.90
44487;DHT22;30191;50.908;6.962;2023-04-03T07:19:50;6.10;99.90
44487;DHT22;30191;50.908;6.962;2023-04-03T07:22:16;6.20;99.90
44487;DHT22;30191;50.908;6.962;2023-04-03T07:24:42;6.20;99.90
44487;DHT22;30191;50.908;6.962;2023-04-03T07:27:07;6.20;99.90
44487;DHT22;30191;50.908;6.962;2023-04-03T07:29:34;6.30;99.90
44487;DHT22;30191;50.908;6.962;2023-04-03T07:32:00;6.30;99.90
44487;DHT22;30191;50.908;6.962;2023-04-03T07:34:25;6.30;99.90
44487;DHT22;30191;50.908;6.962;2023-04-03T07:36:51;6.40;99.90
44487;DHT22;30191;50.908;6.962;2023-04-03T07:39:16;6.40;99.90
44487;DHT22;30191;50.908;6.962;2023-04-03T07:41:42;6.40;99.90
44487;DHT22;30191;50.908;6.962;2023-04-03T07:44:07;6.40;99.90
44487;DHT22;30191;50.908;6.962;2023-04-03T07:46:35;6.40;99.90
44487;DHT22;30191;50.908;6.962;2023-04-03T07:49:00;6.50;99.90
44487;DHT22;30191;50.908;6.962;2023-04-03T07:51:26;6.50;99.90
44487;DHT22;30191;50.908;6.962;2023-04-03T07:53:53;6.50;99.90
44487;DHT22;30191;50.908;6.962;2023-04-03T07:56:19;6.50;99.90
44487;DHT22;30191;50.908;6.962;2023-04-03T07:58:45;6.60;99.90
44487;DHT22;30191;50.908;6.962;2023-04-03T08:01:11;6.60;99.90
44487;DHT22;30191;50.908;6.962;2023-04-03T08:03:37;6.60;99.90
44487;DHT22;30191;50.908;6.962;2023-04-03T08:06:03;6.60;99.90
44487;DHT22;30191;50.908;6.962;2023-04-03T08:08:29;6.60;99.90
44487;DHT22;30191;50.908;6.962;2023-04-03T08:10:57;6.70;99.90
44487;DHT22;30191;50.908;6.962;2023-04-03T08:13:23;6.70;99.90
44487;DHT22;30191;50.908;6.962;2023-04-03T08:15:48;6.70;99.90
44487;DHT22;30191;50.908;6.962;2023-04-03T08:18:14;6.70;99.90
44487;DHT22;30191;50.908;6.962;2023-04-03T08:20:40;6.70;99.90
44487;DHT22;30191;50.908;6.962;2023-04-03T08:23:06;6.80;99.90
44487;DHT22;30191;50.908;6.962;2023-04-03T08:25:32;6.80;99.90
44487;DHT22;30191;50.908;6.962;2023-04-03T08:27:58;6.90;99.90
44487;DHT22;30191;50.908;6.962;2023-04-03T08:30:23;6.90;99.90
44487;DHT22;30191;50.908;6.962;2023-04-03T08:32:49;6.90;99.90
44487;DHT22;30191;50.908;6.962;2023-04-03T08:35:14;6.90;99.90
44487;DHT22;30191;50.908;6.962;2023-04-03T08:37:40;7.00;99.90
44487;DHT22;30191;50.908;6.962;2023-04-03T08:40:06;7.00;99.90
44487;DHT22;30191;50.908;6.962;2023-04-03T08:42:38;7.10;99.90
44487;DHT22;30191;50.908;6.962;2023-04-03T08:45:09;7.10;99.90
44487;DHT22;30191;50.908;6.962;2023-04-03T08:50:20;7.10;99.90
44487;DHT22;30191;50.908;6.962;2023-04-03T08:52:50;7.20;99.90
44487;DHT22;30191;50.908;6.962;2023-04-03T08:58:02;7.10;99.90
44487;DHT22;30191;50.908;6.962;2023-04-03T09:00:38;7.20;99.90
44487;DHT22;30191;50.908;6.962;2023-04-03T09:03:10;7.20;99.90
44487;DHT22;30191;50.908;6.962;2023-04-03T09:05:45;7.30;99.90
44487;DHT22;30191;50.908;6.962;2023-04-03T09:10:40;7.30;99.90
44487;DHT22;30191;50.908;6.962;2023-04-03T09:15:51;7.30;99.90
44487;DHT22;30191;50.908;6.962;2023-04-03T09:18:23;7.30;99.90
44487;DHT22;30191;50.908;6.962;2023-04-03T09:23:33;7.40;99.90
44487;DHT22;30191;50.908;6.962;2023-04-03T09:26:03;7.40;99.90
44487;DHT22;30191;50.908;6.962;2023-04-03T09:28:31;7.50;99.90
44487;DHT22;30191;50.908;6.962;2023-04-03T09:30:59;7.60;99.90
44487;DHT22;30191;50.908;6.962;2023-04-03T09:33:25;7.70;99.90
44487;DHT22;30191;50.908;6.962;2023-04-03T09:35:51;7.70;99.90
44487;DHT22;30191;50.908;6.962;2023-04-03T09:38:18;7.80;99.90
44487;DHT22;30191;50.908;6.962;2023-04-03T09:40:48;7.80;99.70
44487;DHT22;30191;50.908;6.962;2023-04-03T09:45:43;7.90;99.70
44487;DHT22;30191;50.908;6.962;2023-04-03T09:56:00;8.00;98.70
44487;DHT22;30191;50.908;6.962;2023-04-03T09:58:32;8.00;98.80
44487;DHT22;30191;50.908;6.962;2023-04-03T10:01:00;8.10;97.90
44487;DHT22;30191;50.908;6.962;2023-04-03T10:03:30;8.10;97.20
44487;DHT22;30191;50.908;6.962;2023-04-03T10:05:56;8.10;98.30
44487;DHT22;30191;50.908;6.962;2023-04-03T10:13:36;8.20;96.90
44487;DHT22;30191;50.908;6.962;2023-04-03T10:16:09;8.30;97.30
44487;DHT22;30191;50.908;6.962;2023-04-03T10:21:06;8.30;96.20
44487;DHT22;30191;50.908;6.962;2023-04-03T10:23:41;8.40;95.80
44487;DHT22;30191;50.908;6.962;2023-04-03T10:46:03;8.90;93.60
44487;DHT22;30191;50.908;6.962;2023-04-03T10:56:18;8.90;92.90
44487;DHT22;30191;50.908;6.962;2023-04-03T10:58:52;8.90;92.50
44487;DHT22;30191;50.908;6.962;2023-04-03T11:01:20;8.90;91.90
44487;DHT22;30191;50.908;6.962;2023-04-03T11:03:48;9.00;92.80
44487;DHT22;30191;50.908;6.962;2023-04-03T11:06:17;9.00;92.80
44487;DHT22;30191;50.908;6.962;2023-04-03T11:11:11;9.10;90.90
44487;DHT22;30191;50.908;6.962;2023-04-03T11:13:46;9.10;91.60
44487;DHT22;30191;50.908;6.962;2023-04-03T11:16:15;9.20;92.70
44487;DHT22;30191;50.908;6.962;2023-04-03T11:18:45;9.30;89.50
44487;DHT22;30191;50.908;6.962;2023-04-03T11:21:34;9.30;87.20
44487;DHT22;30191;50.908;6.962;2023-04-03T11:23:59;9.30;83.40
44487;DHT22;30191;50.908;6.962;2023-04-03T11:26:29;9.40;85.10
44487;DHT22;30191;50.908;6.962;2023-04-03T11:29:01;9.40;85.30
44487;DHT22;30191;50.908;6.962;2023-04-03T11:37:05;9.50;84.20
44487;DHT22;30191;50.908;6.962;2023-04-03T11:39:32;9.60;84.20
44487;DHT22;30191;50.908;6.962;2023-04-03T11:44:42;9.70;83.40
44487;DHT22;30191;50.908;6.962;2023-04-03T11:47:09;9.80;85.10
44487;DHT22;30191;50.908;6.962;2023-04-03T11:49:51;9.80;84.70
44487;DHT22;30191;50.908;6.962;2023-04-03T11:55:09;9.90;86.40
44487;DHT22;30191;50.908;6.962;2023-04-03T12:03:29;10.20;84.00
44487;DHT22;30191;50.908;6.962;2023-04-03T12:06:41;10.30;80.20
44487;DHT22;30191;50.908;6.962;2023-04-03T12:14:01;10.50;84.00
44487;DHT22;30191;50.908;6.962;2023-04-03T12:16:29;10.60;79.70
44487;DHT22;30191;50.908;6.962;2023-04-03T12:18:56;10.60;79.40
44487;DHT22;30191;50.908;6.962;2023-04-03T12:26:21;10.90;78.20
44487;DHT22;30191;50.908;6.962;2023-04-03T12:28:47;11.00;81.70
44487;DHT22;30191;50.908;6.962;2023-04-03T12:31:13;11.10;78.20
44487;DHT22;30191;50.908;6.962;2023-04-03T12:41:40;11.60;71.90
44487;DHT22;30191;50.908;6.962;2023-04-03T12:46:52;11.80;75.90
44487;DHT22;30191;50.908;6.962;2023-04-03T12:49:22;12.00;75.70
44487;DHT22;30191;50.908;6.962;2023-04-03T12:51:51;12.20;72.70
44487;DHT22;30191;50.908;6.962;2023-04-03T12:54:31;12.50;76.20
44487;DHT22;30191;50.908;6.962;2023-04-03T12:57:10;12.60;74.90
44487;DHT22;30191;50.908;6.962;2023-04-03T12:59:36;12.80;73.40
44487;DHT22;30191;50.908;6.962;2023-04-03T13:02:02;13.10;74.70
44487;DHT22;30191;50.908;6.962;2023-04-03T13:04:28;13.40;74.40
44487;DHT22;30191;50.908;6.962;2023-04-03T13:06:54;13.70;71.50
44487;DHT22;30191;50.908;6.962;2023-04-03T13:09:26;14.00;71.90
44487;DHT22;30191;50.908;6.962;2023-04-03T13:14:22;14.90;68.20
44487;DHT22;30191;50.908;6.962;2023-04-03T13:17:06;15.80;65.60
44487;DHT22;30191;50.908;6.962;2023-04-03T13:19:35;17.80;60.40
44487;DHT22;30191;50.908;6.962;2023-04-03T13:22:04;21.10;55.60
44487;DHT22;30191;50.908;6.962;2023-04-03T13:24:33;23.30;50.30
44487;DHT22;30191;50.908;6.962;2023-04-03T13:27:00;25.50;47.40
44487;DHT22;30191;50.908;6.962;2023-04-03T13:29:33;27.30;45.50
44487;DHT22;30191;50.908;6.962;2023-04-03T13:31:59;29.00;43.00
44487;DHT22;30191;50.908;6.962;2023-04-03T13:34:26;29.50;41.60
44487;DHT22;30191;50.908;6.962;2023-04-03T13:41:47;30.80;39.30
44487;DHT22;30191;50.908;6.962;2023-04-03T13:47:01;31.20;39.30
44487;DHT22;30191;50.908;6.962;2023-04-03T13:49:41;31.90;39.40
44487;DHT22;30191;50.908;6.962;2023-04-03T13:54:55;32.90;37.60
44487;DHT22;30191;50.908;6.962;2023-04-03T13:57:21;32.70;36.90
44487;DHT22;30191;50.908;6.962;2023-04-03T13:59:47;33.10;36.70
44487;DHT22;30191;50.908;6.962;2023-04-03T14:02:15;32.80;36.30
44487;DHT22;30191;50.908;6.962;2023-04-03T14:07:11;30.90;37.20
44487;DHT22;30191;50.908;6.962;2023-04-03T14:09:37;30.30;37.50
44487;DHT22;30191;50.908;6.962;2023-04-03T14:12:07;31.60;37.50
44487;DHT22;30191;50.908;6.962;2023-04-03T14:14:34;31.20;37.40
44487;DHT22;30191;50.908;6.962;2023-04-03T14:17:01;30.50;37.40
44487;DHT22;30191;50.908;6.962;2023-04-03T14:19:28;31.40;36.50
44487;DHT22;30191;50.908;6.962;2023-04-03T14:21:55;31.50;37.00
44487;DHT22;30191;50.908;6.962;2023-04-03T14:24:21;31.10;37.00
44487;DHT22;30191;50.908;6.962;2023-04-03T14:26:48;32.20;36.20
44487;DHT22;30191;50.908;6.962;2023-04-03T14:29:14;32.70;35.90
44487;DHT22;30191;50.908;6.962;2023-04-03T14:31:41;32.00;36.80
44487;DHT22;30191;50.908;6.962;2023-04-03T14:34:06;31.00;36.80
44487;DHT22;30191;50.908;6.962;2023-04-03T14:36:32;30.80;36.90
44487;DHT22;30191;50.908;6.962;2023-04-03T14:38:58;30.90;37.20
44487;DHT22;30191;50.908;6.962;2023-04-03T14:41:25;31.10;36.40
44487;DHT22;30191;50.908;6.962;2023-04-03T14:43:51;31.80;36.60
44487;DHT22;30191;50.908;6.962;2023-04-03T14:46:18;30.80;36.60
44487;DHT22;30191;50.908;6.962;2023-04-03T14:48:44;30.60;36.80
44487;DHT22;30191;50.908;6.962;2023-04-03T14:51:11;30.20;36.80
44487;DHT22;30191;50.908;6.962;2023-04-03T14:53:37;31.40;36.50
44487;DHT22;30191;50.908;6.962;2023-04-03T14:56:05;31.50;36.10
44487;DHT22;30191;50.908;6.962;2023-04-03T14:58:35;31.00;36.50
44487;DHT22;30191;50.908;6.962;2023-04-03T15:01:02;29.90;36.60
44487;DHT22;30191;50.908;6.962;2023-04-03T15:03:27;29.50;36.80
44487;DHT22;30191;50.908;6.962;2023-04-03T15:05:53;29.90;36.70
44487;DHT22;30191;50.908;6.962;2023-04-03T15:08:20;29.00;37.30
44487;DHT22;30191;50.908;6.962;2023-04-03T15:10:47;28.50;37.60
44487;DHT22;30191;50.908;6.962;2023-04-03T15:13:13;28.20;37.70
44487;DHT22;30191;50.908;6.962;2023-04-03T15:15:39;27.80;37.70
44487;DHT22;30191;50.908;6.962;2023-04-03T15:18:04;28.90;37.50
44487;DHT22;30191;50.908;6.962;2023-04-03T15:20:30;28.10;37.40
44487;DHT22;30191;50.908;6.962;2023-04-03T15:22:58;27.90;37.60
44487;DHT22;30191;50.908;6.962;2023-04-03T15:25:26;27.20;37.70
44487;DHT22;30191;50.908;6.962;2023-04-03T15:27:52;26.80;41.90
44487;DHT22;30191;50.908;6.962;2023-04-03T15:30:18;26.80;42.40
44487;DHT22;30191;50.908;6.962;2023-04-03T15:32:44;26.90;38.60
44487;DHT22;30191;50.908;6.962;2023-04-03T15:35:10;25.80;38.50
44487;DHT22;30191;50.908;6.962;2023-04-03T15:37:36;25.50;38.20
44487;DHT22;30191;50.908;6.962;2023-04-03T15:40:02;24.50;40.70
44487;DHT22;30191;50.908;6.962;2023-04-03T15:42:28;23.60;41.00
44487;DHT22;30191;50.908;6.962;2023-04-03T15:44:53;22.90;40.90
44487;DHT22;30191;50.908;6.962;2023-04-03T15:47:19;22.60;42.10
44487;DHT22;30191;50.908;6.962;2023-04-03T15:49:45;22.20;42.10
44487;DHT22;30191;50.908;6.962;2023-04-03T15:52:10;21.70;42.10
44487;DHT22;30191;50.908;6.962;2023-04-03T15:54:36;21.30;42.60
44487;DHT22;30191;50.908;6.962;2023-04-03T15:57:02;20.90;43.00
44487;DHT22;30191;50.908;6.962;2023-04-03T15:59:27;20.50;43.90
44487;DHT22;30191;50.908;6.962;2023-04-03T16:01:55;20.20;44.00
44487;DHT22;30191;50.908;6.962;2023-04-03T16:04:21;20.00;44.50
44487;DHT22;30191;50.908;6.962;2023-04-03T16:06:47;19.60;44.30
44487;DHT22;30191;50.908;6.962;2023-04-03T16:09:12;19.40;44.80
44487;DHT22;30191;50.908;6.962;2023-04-03T16:11:38;19.10;44.80
44487;DHT22;30191;50.908;6.962;2023-04-03T16:14:05;19.00;45.50
44487;DHT22;30191;50.908;6.962;2023-04-03T16:16:31;18.80;45.80
44487;DHT22;30191;50.908;6.962;2023-04-03T16:18:57;18.60;45.90
44487;DHT22;30191;50.908;6.962;2023-04-03T16:21:22;18.50;45.50
44487;DHT22;30191;50.908;6.962;2023-04-03T16:23:48;18.20;45.50
44487;DHT22;30191;50.908;6.962;2023-04-03T16:26:14;17.90;45.30
44487;DHT22;30191;50.908;6.962;2023-04-03T16:28:40;17.60;45.30
44487;DHT22;30191;50.908;6.962;2023-04-03T16:31:06;17.40;46.20
44487;DHT22;30191;50.908;6.962;2023-04-03T16:33:32;17.30;46.60
44487;DHT22;30191;50.908;6.962;2023-04-03T16:35:58;17.20;46.90
44487;DHT22;30191;50.908;6.962;2023-04-03T16:38:23;17.10;47.30
44487;DHT22;30191;50.908;6.962;2023-04-03T16:40:49;16.90;47.50
44487;DHT22;30191;50.908;6.962;2023-04-03T16:43:15;16.90;47.50
44487;DHT22;30191;50.908;6.962;2023-04-03T16:45:41;16.90;47.30
44487;DHT22;30191;50.908;6.962;2023-04-03T16:48:07;16.90;47.90
44487;DHT22;30191;50.908;6.962;2023-04-03T16:50:33;16.80;47.50
44487;DHT22;30191;50.908;6.962;2023-04-03T16:52:58;16.80;47.50
44487;DHT22;30191;50.908;6.962;2023-04-03T16:55:24;16.70;47.60
44487;DHT22;30191;50.908;6.962;2023-04-03T16:57:50;16.60;47.60
44487;DHT22;30191;50.908;6.962;2023-04-03T17:00:15;16.60;47.80
44487;DHT22;30191;50.908;6.962;2023-04-03T17:02:41;16.50;47.80
44487;DHT22;30191;50.908;6.962;2023-04-03T17:05:07;16.40;47.80
44487;DHT22;30191;50.908;6.962;2023-04-03T17:07:32;16.40;48.70
44487;DHT22;30191;50.908;6.962;2023-04-03T17:09:58;16.30;48.10
44487;DHT22;30191;50.908;6.962;2023-04-03T17:12:23;16.10;48.50
44487;DHT22;30191;50.908;6.962;2023-04-03T17:14:49;16.00;48.80
44487;DHT22;30191;50.908;6.962;2023-04-03T17:17:15;15.70;48.50
44487;DHT22;30191;50.908;6.962;2023-04-03T17:19:43;15.50;49.10
44487;DHT22;30191;50.908;6.962;2023-04-03T17:22:08;15.20;49.70
44487;DHT22;30191;50.908;6.962;2023-04-03T17:24:34;15.10;50.80
44487;DHT22;30191;50.908;6.962;2023-04-03T17:27:01;15.00;50.80
44487;DHT22;30191;50.908;6.962;2023-04-03T17:29:27;14.80;51.80
44487;DHT22;30191;50.908;6.962;2023-04-03T17:31:52;14.50;52.10
44487;DHT22;30191;50.908;6.962;2023-04-03T17:34:18;14.40;52.50
44487;DHT22;30191;50.908;6.962;2023-04-03T17:36:43;14.20;52.50